createdAt,value
2022-08-16T00:00:22.085Z,5.45
2022-08-16T00:02:48.274Z,5.57
2022-08-16T00:05:18.692Z,5.79
2022-08-16T00:07:49.049Z,5.79
2022-08-16T00:10:20.261Z,5.64
2022-08-16T00:12:50.319Z,5.83
2022-08-16T00:15:20.825Z,5.88
2022-08-16T00:17:57.236Z,5.83
2022-08-16T00:20:21.849Z,5.61
2022-08-16T00:22:51.847Z,5.66
2022-08-16T00:26:36.370Z,5.9
2022-08-16T00:27:52.103Z,5.96
2022-08-16T00:30:28.982Z,5.76
2022-08-16T00:32:52.658Z,5.59
2022-08-16T00:35:23.364Z,5.76
2022-08-16T00:37:57.122Z,5.97
2022-08-16T00:40:34.347Z,5.98
2022-08-16T00:42:54.867Z,6.14
2022-08-16T00:45:25.161Z,6.19
2022-08-16T00:47:54.973Z,6.21
2022-08-16T00:50:36.305Z,6.11
2022-08-16T00:52:56.769Z,6.11
2022-08-16T00:55:27.459Z,6.06
2022-08-16T00:57:59.927Z,6.1
2022-08-16T01:00:28.874Z,6.07
2022-08-16T01:02:59.527Z,6.13
2022-08-16T01:05:29.767Z,6.12
2022-08-16T01:08:00.651Z,6.17
2022-08-16T01:10:32.168Z,6.01
2022-08-16T01:13:01.852Z,5.97
2022-08-16T01:15:32.447Z,5.99
2022-08-16T01:18:02.958Z,5.88
2022-08-16T01:20:34.055Z,5.82
2022-08-16T01:23:04.037Z,5.71
2022-08-16T01:25:34.590Z,5.84
2022-08-16T01:28:04.824Z,5.92
2022-08-16T01:30:34.810Z,5.82
2022-08-16T01:33:14.556Z,5.64
2022-08-16T01:35:36.327Z,5.74
2022-08-16T01:38:05.985Z,5.71
2022-08-16T01:40:36.358Z,5.71
2022-08-16T01:43:06.779Z,5.61
2022-08-16T01:45:40.822Z,5.62
2022-08-16T01:48:19.191Z,5.86
2022-08-16T01:50:43.306Z,6.09
2022-08-16T01:53:10.158Z,6.26
2022-08-16T01:55:40.756Z,6.26
2022-08-16T01:58:10.819Z,5.89
2022-08-16T02:00:40.812Z,5.72
2022-08-16T02:03:12.643Z,5.76
2022-08-16T02:05:46.544Z,5.75
2022-08-16T02:08:33.331Z,6.03
2022-08-16T02:10:41.994Z,6.07
2022-08-16T02:13:12.539Z,6.11
2022-08-16T02:15:43.935Z,6.05
2022-08-16T02:18:13.512Z,6.21
2022-08-16T02:20:45.437Z,6.3
2022-08-16T02:23:14.135Z,6.24
2022-08-16T02:25:51.685Z,6.2
2022-08-16T02:28:17.484Z,6.23
2022-08-16T02:30:50.521Z,6.17
2022-08-16T02:33:15.697Z,6.03
2022-08-16T02:35:53.949Z,6.1
2022-08-16T02:38:16.021Z,6
2022-08-16T02:40:46.510Z,5.97
2022-08-16T02:43:17.411Z,5.94
2022-08-16T02:45:47.763Z,5.87
2022-08-16T02:48:28.502Z,5.91
2022-08-16T02:50:55.494Z,6.1
2022-08-16T02:53:23.626Z,5.85
2022-08-16T02:55:50.403Z,5.85
2022-08-16T02:58:20.304Z,5.84
2022-08-16T03:00:50.957Z,5.9
2022-08-16T03:03:21.387Z,5.84
2022-08-16T03:05:52.671Z,5.88
2022-08-16T03:08:50.487Z,5.99
2022-08-16T03:10:52.219Z,6.31
2022-08-16T03:13:22.376Z,6.29
2022-08-16T03:15:52.768Z,6.12
2022-08-16T03:18:34.536Z,6.22
2022-08-16T03:20:55.554Z,6.16
2022-08-16T03:23:23.577Z,6.28
2022-08-16T03:25:53.838Z,6.32
2022-08-16T03:28:24.717Z,6.54
2022-08-16T03:30:55.289Z,6.58
2022-08-16T03:33:25.175Z,6.48
2022-08-16T03:35:57.323Z,6.58
2022-08-16T03:38:34.310Z,6.9
2022-08-16T03:40:56.812Z,7.05
2022-08-16T03:43:51.148Z,7.2
2022-08-16T03:45:57.584Z,7.42
2022-08-16T03:48:36.828Z,7.42
2022-08-16T03:50:59.485Z,7.23
2022-08-16T03:53:37.763Z,7.15
2022-08-16T03:56:00.103Z,6.78
2022-08-16T03:58:30.445Z,6.62
2022-08-16T04:01:01.205Z,6.64
2022-08-16T04:03:31.698Z,6.66
2022-08-16T04:06:02.176Z,6.62
2022-08-16T04:08:32.430Z,6.72
2022-08-16T04:11:03.293Z,6.59
2022-08-16T04:13:59.415Z,6.58
2022-08-16T04:16:06.534Z,6.62
2022-08-16T04:18:35.386Z,6.79
2022-08-16T04:21:06.232Z,6.75
2022-08-16T04:23:36.457Z,6.82
2022-08-16T04:26:07.202Z,6.85
2022-08-16T04:28:53.710Z,6.81
2022-08-16T04:31:10.642Z,6.86
2022-08-16T04:33:38.575Z,6.95
2022-08-16T04:36:09.163Z,6.93
2022-08-16T04:38:39.724Z,6.93
2022-08-16T04:41:10.598Z,6.94
2022-08-16T04:43:43.730Z,7.03
2022-08-16T04:46:26.499Z,7.06
2022-08-16T04:48:41.893Z,7.16
2022-08-16T04:51:12.824Z,6.99
2022-08-16T04:53:42.759Z,7
2022-08-16T04:56:13.008Z,6.9
2022-08-16T04:58:45.521Z,6.86
2022-08-16T05:01:13.759Z,6.82
2022-08-16T05:04:00.508Z,6.86
2022-08-16T05:06:14.540Z,6.86
2022-08-16T05:08:47.326Z,6.78
2022-08-16T05:11:15.056Z,6.79
2022-08-16T05:13:45.602Z,6.9
2022-08-16T05:16:20.226Z,7.01
2022-08-16T05:18:46.161Z,7.03
2022-08-16T05:21:16.281Z,7.13
2022-08-16T05:23:51.777Z,7.09
2022-08-16T05:26:19.918Z,7.04
2022-08-16T05:28:46.995Z,7.07
2022-08-16T05:31:17.011Z,7.03
2022-08-16T05:33:53.513Z,7.02
2022-08-16T05:36:20.940Z,7.02
2022-08-16T05:38:48.615Z,7.11
2022-08-16T05:41:18.899Z,7.15
2022-08-16T05:43:49.597Z,7.22
2022-08-16T05:46:29.900Z,7.09
2022-08-16T05:48:55.071Z,7.01
2022-08-16T05:51:38.350Z,7.12
2022-08-16T05:53:51.426Z,7.12
2022-08-16T05:56:21.569Z,7.04
2022-08-16T05:58:51.949Z,7.08
2022-08-16T06:01:22.244Z,7.03
2022-08-16T06:03:52.889Z,7.07
2022-08-16T06:06:28.052Z,7.14
2022-08-16T06:08:54.093Z,7.11
2022-08-16T06:11:25.613Z,7.02
2022-08-16T06:13:55.403Z,6.92
2022-08-16T06:16:27.028Z,6.96
2022-08-16T06:18:55.663Z,6.77
2022-08-16T06:21:26.643Z,6.38
2022-08-16T06:23:57.010Z,6.15
2022-08-16T06:26:36.992Z,5.83
2022-08-16T06:28:57.918Z,5.67
2022-08-16T06:31:28.047Z,5.87
2022-08-16T06:33:58.793Z,5.74
2022-08-16T06:36:29.612Z,6.03
2022-08-16T06:39:00.080Z,6.04
2022-08-16T06:41:39.474Z,5.81
2022-08-16T06:44:00.829Z,5.85
2022-08-16T06:46:32.084Z,5.43
2022-08-16T06:49:01.560Z,5.44
2022-08-16T06:51:45.717Z,5.3
2022-08-16T06:54:02.987Z,5.29
2022-08-16T06:56:33.827Z,5.66
2022-08-16T06:59:04.025Z,5.07
2022-08-16T07:01:43.256Z,5.54
2022-08-16T07:04:04.744Z,5.47
2022-08-16T07:06:35.573Z,5.31
2022-08-16T07:09:09.417Z,5.51
2022-08-16T07:11:46.149Z,5.56
2022-08-16T07:14:24.584Z,5.5
2022-08-16T07:16:37.665Z,5.11
2022-08-16T07:19:08.191Z,5.16
2022-08-16T07:21:46.700Z,5.41
2022-08-16T07:24:09.503Z,5.32
2022-08-16T07:26:40.341Z,4.81
2022-08-16T07:29:10.725Z,4.97
2022-08-16T07:31:40.840Z,4.96
2022-08-16T07:34:11.279Z,5.12
2022-08-16T07:36:41.987Z,4.85
2022-08-16T07:39:12.209Z,4.74
2022-08-16T07:41:42.826Z,4.86
2022-08-16T07:44:16.119Z,4.75
2022-08-16T07:46:43.735Z,4.87
2022-08-16T07:49:14.226Z,4.85
2022-08-16T07:51:44.475Z,4.89
2022-08-16T07:54:20.682Z,4.61
2022-08-16T07:56:45.500Z,4.75
2022-08-16T07:59:15.960Z,4.64
2022-08-16T08:01:46.121Z,4.63
2022-08-16T08:04:16.883Z,4.64
2022-08-16T08:06:50.933Z,4.17
2022-08-16T08:09:18.490Z,4.26
2022-08-16T08:11:59.772Z,4.3
2022-08-16T08:14:29.373Z,4.24
2022-08-16T08:16:49.364Z,4.21
2022-08-16T08:19:20.069Z,4.27
2022-08-16T08:22:01.363Z,4.1
2022-08-16T08:24:21.294Z,3.96
2022-08-16T08:26:52.087Z,4.05
2022-08-16T08:29:23.004Z,3.96
2022-08-16T08:31:53.212Z,3.87
2022-08-16T08:34:23.793Z,3.96
2022-08-16T08:36:54.709Z,3.94
2022-08-16T08:39:24.518Z,3.51
2022-08-16T08:41:55.165Z,3.53
2022-08-16T08:44:28.563Z,3.5
2022-08-16T08:47:00.660Z,3.49
2022-08-16T08:49:46.449Z,3.63
2022-08-16T08:51:56.535Z,4.04
2022-08-16T08:54:27.213Z,3.6
2022-08-16T08:56:57.710Z,3.51
2022-08-16T08:59:27.778Z,3.29
2022-08-16T09:01:58.695Z,3.41
2022-08-16T09:04:28.460Z,3.57
2022-08-16T09:07:01.379Z,3.41
2022-08-16T09:09:33.590Z,3.21
2022-08-16T09:12:05.952Z,3.31
2022-08-16T09:14:30.224Z,3.52
2022-08-16T09:17:03.722Z,3.06
2022-08-16T09:19:32.991Z,3.04
2022-08-16T09:22:01.277Z,3.13
2022-08-16T09:24:52.108Z,3.03
2022-08-16T09:27:01.880Z,2.95
2022-08-16T09:29:45.217Z,2.87
2022-08-16T09:32:04.011Z,2.77
2022-08-16T09:34:33.275Z,2.93
2022-08-16T09:37:17.630Z,2.81
2022-08-16T09:39:41.609Z,2.97
2022-08-16T09:42:05.231Z,2.67
2022-08-16T09:45:13.092Z,2.72
2022-08-16T09:47:10.404Z,2.73
2022-08-16T09:49:37.434Z,2.62
2022-08-16T09:52:07.411Z,2.54
2022-08-16T09:54:37.540Z,2.52
2022-08-16T09:57:12.093Z,2.76
2022-08-16T09:59:42.035Z,2.65
2022-08-16T10:02:27.256Z,2.42
2022-08-16T10:04:52.973Z,2.57
2022-08-16T10:07:15.017Z,2.63
2022-08-16T10:09:44.778Z,2.28
2022-08-16T10:12:11.309Z,2.31
2022-08-16T10:14:39.789Z,2.31
2022-08-16T10:17:10.520Z,2.48
2022-08-16T10:19:40.634Z,2.46
2022-08-16T10:22:10.791Z,2.5
2022-08-16T10:24:40.902Z,2.39
2022-08-16T10:27:26.129Z,2.44
2022-08-16T10:30:00.839Z,2.46
2022-08-16T10:32:11.286Z,2.54
2022-08-16T10:34:41.398Z,2.41
2022-08-16T10:37:12.075Z,2.47
2022-08-16T10:39:42.509Z,2.18
2022-08-16T10:42:13.508Z,2.37
2022-08-16T10:44:43.031Z,2.32
2022-08-16T10:47:13.081Z,2.34
2022-08-16T10:49:43.208Z,2.25
2022-08-16T10:52:18.644Z,2.29
2022-08-16T10:54:59.083Z,2.27
2022-08-16T10:57:13.558Z,2.12
2022-08-16T10:59:51.871Z,2.33
2022-08-16T11:02:57.694Z,2.16
2022-08-16T11:05:06.742Z,2.18
2022-08-16T11:07:54.829Z,2.27
2022-08-16T11:09:44.309Z,2.33
2022-08-16T11:12:14.957Z,2.16
2022-08-16T11:15:12.200Z,2.27
2022-08-16T11:17:15.204Z,2.28
2022-08-16T11:20:40.705Z,2.46
2022-08-16T11:22:39.650Z,2.21
2022-08-16T11:24:46.552Z,2.25
2022-08-16T11:27:21.159Z,2.33
2022-08-16T11:29:46.555Z,2.26
2022-08-16T11:32:20.277Z,2.12
2022-08-16T11:35:09.931Z,2.2
2022-08-16T11:37:27.203Z,2.21
2022-08-16T11:39:47.567Z,2.18
2022-08-16T11:42:23.244Z,2.07
2022-08-16T11:44:56.100Z,2.09
2022-08-16T11:47:17.878Z,2.05
2022-08-16T11:49:48.421Z,2.16
2022-08-16T11:52:18.545Z,2.18
2022-08-16T11:54:53.944Z,2.06
2022-08-16T11:57:18.784Z,2.02
2022-08-16T11:59:48.777Z,2.03
2022-08-16T12:02:31.153Z,2.02
2022-08-16T12:04:51.915Z,2.23
2022-08-16T12:07:19.639Z,2.14
2022-08-16T12:09:50.256Z,2.22
2022-08-16T12:12:20.386Z,2.08
2022-08-16T12:14:54.450Z,2.01
2022-08-16T12:17:20.549Z,2.16
2022-08-16T12:19:50.616Z,1.97
2022-08-16T12:22:20.729Z,1.93
2022-08-16T12:24:52.345Z,2.22
2022-08-16T12:27:21.493Z,2.06
2022-08-16T12:29:52.116Z,2.04
2022-08-16T12:32:38.383Z,2.07
2022-08-16T12:34:52.749Z,1.85
2022-08-16T12:37:24.480Z,1.95
2022-08-16T12:39:53.028Z,1.84
2022-08-16T12:42:24.509Z,1.87
2022-08-16T12:44:53.707Z,1.96
2022-08-16T12:47:23.798Z,1.88
2022-08-16T12:49:53.851Z,2.01
2022-08-16T12:52:33.820Z,1.91
2022-08-16T12:54:54.728Z,1.94
2022-08-16T12:57:24.115Z,1.74
2022-08-16T12:59:54.145Z,1.82
2022-08-16T13:02:33.691Z,1.85
2022-08-16T13:04:54.303Z,1.7
2022-08-16T13:07:27.286Z,1.71
2022-08-16T13:09:54.999Z,1.79
2022-08-16T13:12:25.216Z,1.82
2022-08-16T13:14:55.140Z,1.74
2022-08-16T13:17:26.279Z,1.67
2022-08-16T13:20:07.196Z,1.65
2022-08-16T13:22:26.082Z,1.8
2022-08-16T13:24:56.531Z,1.7
2022-08-16T13:27:59.323Z,1.59
2022-08-16T13:29:57.890Z,1.68
2022-08-16T13:32:39.702Z,1.45
2022-08-16T13:34:57.364Z,1.72
2022-08-16T13:37:27.584Z,1.49
2022-08-16T13:39:57.577Z,1.45
2022-08-16T13:42:27.627Z,1.39
2022-08-16T13:44:58.364Z,1.43
2022-08-16T13:47:30.220Z,1.63
2022-08-16T13:49:57.799Z,1.52
2022-08-16T13:52:32.153Z,1.56
2022-08-16T13:54:58.604Z,1.45
2022-08-16T13:57:53.375Z,1.66
2022-08-16T13:59:58.661Z,1.59
2022-08-16T14:02:28.779Z,1.68
2022-08-16T14:05:02.952Z,1.59
2022-08-16T14:07:29.386Z,1.57
2022-08-16T14:09:58.888Z,1.63
2022-08-16T14:12:28.995Z,1.44
2022-08-16T14:14:58.981Z,1.51
2022-08-16T14:17:29.036Z,1.76
2022-08-16T14:19:59.632Z,1.44
2022-08-16T14:22:30.704Z,1.66
2022-08-16T14:24:59.719Z,1.78
2022-08-16T14:27:29.805Z,1.63
2022-08-16T14:29:59.787Z,1.64
2022-08-16T14:32:32.941Z,1.64
2022-08-16T14:35:00.181Z,1.41
2022-08-16T14:37:31.870Z,1.44
2022-08-16T14:40:00.505Z,1.44
2022-08-16T14:42:30.346Z,1.44
2022-08-16T14:45:00.746Z,1.53
2022-08-16T14:47:34.438Z,1.67
2022-08-16T14:50:00.510Z,1.87
2022-08-16T14:52:53.967Z,1.5
2022-08-16T14:55:00.535Z,1.44
2022-08-16T14:57:30.682Z,1.48
2022-08-16T15:00:05.707Z,1.38
2022-08-16T15:02:34.557Z,1.63
2022-08-16T15:05:00.746Z,1.47
2022-08-16T15:07:34.996Z,1.38
2022-08-16T15:10:03.376Z,1.52
2022-08-16T15:12:33.533Z,1.45
2022-08-16T15:15:01.508Z,1.88
2022-08-16T15:17:33.875Z,1.63
2022-08-16T15:20:02.188Z,1.54
2022-08-16T15:22:32.896Z,1.57
2022-08-16T15:25:02.867Z,1.41
2022-08-16T15:27:35.571Z,1.56
2022-08-16T15:30:56.547Z,1.41
2022-08-16T15:32:33.637Z,1.4
2022-08-16T15:35:04.646Z,1.53
2022-08-16T15:37:42.580Z,1.44
2022-08-16T15:40:04.607Z,1.48
2022-08-16T15:42:34.472Z,1.5
2022-08-16T15:45:11.478Z,1.38
2022-08-16T15:47:35.154Z,1.43
2022-08-16T15:50:05.194Z,1.41
2022-08-16T15:52:35.255Z,1.5
2022-08-16T15:55:13.259Z,1.45
2022-08-16T15:57:41.472Z,1.42
2022-08-16T16:00:14.338Z,1.61
2022-08-16T16:02:37.276Z,1.44
2022-08-16T16:05:07.393Z,1.54
2022-08-16T16:07:44.910Z,1.59
2022-08-16T16:10:13.165Z,1.55
2022-08-16T16:12:51.607Z,1.66
2022-08-16T16:15:09.891Z,1.59
2022-08-16T16:17:39.968Z,1.58
2022-08-16T16:20:14.712Z,1.56
2022-08-16T16:22:40.679Z,1.51
2022-08-16T16:25:10.711Z,1.39
2022-08-16T16:27:40.834Z,1.46
2022-08-16T16:30:32.655Z,1.4
2022-08-16T16:32:40.970Z,1.66
2022-08-16T16:35:11.090Z,1.7
2022-08-16T16:37:41.738Z,1.64
2022-08-16T16:40:12.845Z,1.59
2022-08-16T16:42:44.366Z,1.7
2022-08-16T16:45:12.496Z,1.79
2022-08-16T16:47:48.376Z,1.57
2022-08-16T16:50:13.147Z,1.57
2022-08-16T16:52:44.954Z,1.52
2022-08-16T16:55:14.757Z,1.54
2022-08-16T16:57:44.685Z,1.53
2022-08-16T17:00:30.004Z,1.7
2022-08-16T17:02:49.781Z,1.83
2022-08-16T17:05:14.870Z,1.62
2022-08-16T17:07:44.999Z,1.67
2022-08-16T17:10:46.872Z,1.64
2022-08-16T17:12:56.704Z,1.58
2022-08-16T17:15:16.339Z,1.66
2022-08-16T17:18:00.015Z,1.9
2022-08-16T17:20:16.253Z,1.85
2022-08-16T17:22:46.735Z,1.78
2022-08-16T17:25:17.006Z,1.92
2022-08-16T17:27:50.752Z,1.86
2022-08-16T17:30:18.116Z,1.84
2022-08-16T17:32:50.415Z,1.68
2022-08-16T17:35:18.996Z,1.69
2022-08-16T17:37:52.069Z,1.79
2022-08-16T17:40:25.845Z,1.67
2022-08-16T17:42:50.541Z,1.76
2022-08-16T17:45:20.616Z,1.88
2022-08-16T17:47:50.831Z,1.83
2022-08-16T17:50:20.850Z,1.76
2022-08-16T17:52:51.245Z,1.71
2022-08-16T17:55:21.097Z,1.74
2022-08-16T17:57:51.837Z,1.83
2022-08-16T18:00:22.483Z,1.88
2022-08-16T18:02:53.002Z,1.94
2022-08-16T18:05:23.039Z,2.14
2022-08-16T18:07:53.742Z,1.89
2022-08-16T18:10:33.483Z,2.04
2022-08-16T18:12:55.843Z,1.97
2022-08-16T18:15:24.988Z,1.93
2022-08-16T18:17:55.374Z,1.87
2022-08-16T18:20:25.479Z,1.92
2022-08-16T18:22:55.636Z,1.94
2022-08-16T18:25:25.744Z,1.95
2022-08-16T18:27:56.235Z,1.91
2022-08-16T18:30:26.882Z,1.96
2022-08-16T18:32:57.031Z,1.97
2022-08-16T18:35:27.294Z,1.95
2022-08-16T18:37:57.858Z,2
2022-08-16T18:40:28.565Z,1.96
2022-08-16T18:42:58.733Z,2.05
2022-08-16T18:45:35.579Z,2.08
2022-08-16T18:47:59.935Z,2.05
2022-08-16T18:51:03.110Z,2.15
2022-08-16T18:53:00.680Z,2.13
2022-08-16T18:55:33.511Z,2.2
2022-08-16T18:58:01.211Z,2.33
2022-08-16T19:00:31.866Z,2.42
2022-08-16T19:03:02.022Z,2.57
2022-08-16T19:05:32.708Z,2.55
2022-08-16T19:08:03.433Z,2.44
2022-08-16T19:10:34.200Z,2.39
2022-08-16T19:13:04.601Z,2.35
2022-08-16T19:15:34.724Z,2.38
2022-08-16T19:18:05.480Z,2.41
2022-08-16T19:20:35.583Z,2.57
2022-08-16T19:23:10.551Z,2.81
2022-08-16T19:25:47.176Z,2.84
2022-08-16T19:28:07.558Z,2.9
2022-08-16T19:30:37.707Z,2.76
2022-08-16T19:33:11.023Z,2.72
2022-08-16T19:35:38.143Z,2.74
2022-08-16T19:38:08.396Z,2.8
2022-08-16T19:40:38.666Z,2.84
2022-08-16T19:43:08.888Z,2.84
2022-08-16T19:45:43.861Z,2.93
2022-08-16T19:48:09.148Z,2.84
2022-08-16T19:50:39.568Z,2.7
2022-08-16T19:53:12.885Z,2.83
2022-08-16T19:55:40.386Z,2.72
2022-08-16T19:58:10.888Z,2.71
2022-08-16T20:00:41.578Z,2.85
2022-08-16T20:03:11.826Z,2.98
2022-08-16T20:05:42.469Z,2.83
2022-08-16T20:08:12.729Z,2.77
2022-08-16T20:10:43.439Z,2.82
2022-08-16T20:13:13.613Z,2.74
2022-08-16T20:15:43.682Z,2.56
2022-08-16T20:18:24.977Z,2.58
2022-08-16T20:20:44.622Z,2.56
2022-08-16T20:23:24.025Z,2.56
2022-08-16T20:25:49.746Z,2.61
2022-08-16T20:28:33.340Z,2.67
2022-08-16T20:30:46.762Z,2.67
2022-08-16T20:33:16.943Z,2.76
2022-08-16T20:35:47.176Z,2.71
2022-08-16T20:38:17.923Z,2.79
2022-08-16T20:40:48.139Z,2.73
2022-08-16T20:43:18.668Z,2.75
2022-08-16T20:45:49.399Z,2.73
2022-08-16T20:48:19.931Z,2.95
2022-08-16T20:50:50.339Z,3.09
2022-08-16T20:53:20.987Z,3.11
2022-08-16T20:55:51.607Z,3.04
2022-08-16T20:58:21.841Z,3.05
2022-08-16T21:00:52.701Z,3.17
2022-08-16T21:03:23.080Z,3.19
2022-08-16T21:05:53.222Z,3.24
2022-08-16T21:08:27.902Z,3.2
2022-08-16T21:10:54.051Z,3.33
2022-08-16T21:13:24.282Z,3.25
2022-08-16T21:15:54.729Z,3.28
2022-08-16T21:18:24.991Z,3.31
2022-08-16T21:20:55.417Z,3.38
2022-08-16T21:23:25.944Z,3.4
2022-08-16T21:25:58.978Z,3.4
2022-08-16T21:28:40.214Z,3.44
2022-08-16T21:30:56.385Z,3.45
2022-08-16T21:33:26.914Z,3.52
2022-08-16T21:35:57.644Z,3.55
2022-08-16T21:38:29.999Z,3.36
2022-08-16T21:40:58.562Z,3.42
2022-08-16T21:43:29.376Z,3.5
2022-08-16T21:45:59.576Z,3.55
2022-08-16T21:48:33.717Z,3.62
2022-08-16T21:51:00.615Z,3.47
2022-08-16T21:53:31.348Z,3.42
2022-08-16T21:56:01.765Z,3.62
2022-08-16T21:58:32.277Z,3.62
2022-08-16T22:01:02.994Z,3.56
2022-08-16T22:03:33.190Z,3.64
2022-08-16T22:06:13.783Z,3.7
2022-08-16T22:08:33.727Z,3.65
2022-08-16T22:11:09.282Z,3.63
2022-08-16T22:13:35.070Z,3.71
2022-08-16T22:16:05.567Z,3.75
2022-08-16T22:18:35.959Z,3.91
2022-08-16T22:21:05.829Z,3.8
2022-08-16T22:23:35.954Z,3.89
2022-08-16T22:26:06.272Z,3.81
2022-08-16T22:28:36.861Z,3.82
2022-08-16T22:31:07.318Z,3.8
2022-08-16T22:33:38.012Z,3.93
2022-08-16T22:36:08.225Z,3.92
2022-08-16T22:38:54.865Z,3.92
2022-08-16T22:41:09.194Z,3.96
2022-08-16T22:43:39.632Z,4.1
2022-08-16T22:46:09.876Z,3.99
2022-08-16T22:48:42.553Z,4
2022-08-16T22:51:11.034Z,3.86
2022-08-16T22:53:41.996Z,3.95
2022-08-16T22:56:12.144Z,4.03
2022-08-16T22:58:42.716Z,3.95
2022-08-16T23:01:12.963Z,3.77
2022-08-16T23:03:42.992Z,3.77
2022-08-16T23:06:13.677Z,3.79
2022-08-16T23:08:43.845Z,3.96
2022-08-16T23:11:14.051Z,3.99
2022-08-16T23:13:49.987Z,4.09
2022-08-16T23:16:14.780Z,4.15
2022-08-16T23:18:45.254Z,4.13
2022-08-16T23:21:15.625Z,4.3
2022-08-16T23:23:46.411Z,4.32
2022-08-16T23:26:46.654Z,4.39
2022-08-16T23:28:46.988Z,4.36
2022-08-16T23:31:17.182Z,4.27
2022-08-16T23:33:47.502Z,4.13
2022-08-16T23:36:17.627Z,4.04
2022-08-16T23:38:48.144Z,4.22
2022-08-16T23:41:18.895Z,4.34
2022-08-16T23:43:49.230Z,4.37
2022-08-16T23:46:19.713Z,4.29
2022-08-16T23:50:01.597Z,4.33
2022-08-16T23:51:20.467Z,4.27
2022-08-16T23:53:51.343Z,4.38
2022-08-16T23:56:21.710Z,4.18
2022-08-16T23:58:58.288Z,4.22
